الصفحة الرئيسية
METAR-TAF:

METAR-TAF

مطار :

مطار واتاي الدولي

فيينتيان, لاوس

دائرة عرض: 17-57N, خط طول: 102-34E, ارتفاع: 171 متر

مراقبة الطقس الحالي

تاريخ ووقت الإصدار 35 دقيقة قبل الساعة 00:30UTC
ريح 4 عقدة من الجنوب
درجة الحرارة 27°درجة مئوية
الرطوبة 94%
ضغط 1006 hPa
الرؤية: 5000 متر
غيوم مفككة على ارتفاع 4000 قدم
غيوم مفككة على ارتفاع 8300 قدم
غشاء

METAR: VLVT 240030Z 18004KT 5000 BR BKN040 BKN083 27/26 Q1006 NOSIG

زمن: 08:05 (01:05 UTC)

توقعات

تاريخ ووقت الإصدار 2ساعات و 5 دقيقة قبل الساعة 23:00UTC
التوقعات صالحة من24 الساعة 00 UTC إلى 24 الساعة 24 UTC
ريح 4 عقدة من الجنوب الغربي
الرؤية: 5000 متر
غيوم متفرقة على ارتفاع 1300 قدم
غيوم مفككة على ارتفاع 4000 قدم
غيوم مفككة على ارتفاع 8300 قدم
غشاء
مؤقت
من 24 الساعة 05 UTC إلى 24 الساعة 11 UTC
الرؤية: 8000 متر
غيوم متفرقة على ارتفاع 1600 قدم
غيوم مفككة على ارتفاع 4000 قدم
غيوم مفككة على ارتفاع 8300 قدم

TAF: VLVT 232300Z 2400/2424 22004KT 5000 BR SCT013 BKN040 BKN083 TEMPO 2405/2411 8000 SCT016 BKN040 BKN083

أرصاد الطقس والتوقعات من أكثر من 4000 مطار (تقارير الطقس للمطار METAR والتنبؤ بالطقس بالمطارTAF).

المحطات المتاحة هي النقط الصفراء والحمراء على الخريطة.

حرك المؤشر فوق النقطة لمعرفة اسم المحطة.

ثم انقر لمعرفة أرصاد وتوقعات الطقس.

لتغيير الخارطة: اضغط على الأزرار الخضراء مع رمز الصليب الأسود للتكبير. على الزر الأخضر مع شرطة للتصغير، أو على الأسهم الخضراء للخرائط المجاورة.


METAR-TAF: